createdAt,value
2019-02-27T00:00:39.316Z,1002.43
2019-02-27T00:01:49.699Z,1002.44
2019-02-27T00:02:53.746Z,1002.52
2019-02-27T00:04:02.511Z,1002.44
2019-02-27T00:05:08.405Z,1002.38
2019-02-27T00:06:15.881Z,1002.45
2019-02-27T00:07:21.084Z,1002.41
2019-02-27T00:08:27.525Z,1002.44
2019-02-27T00:09:34.345Z,1002.46
2019-02-27T00:10:41.212Z,1002.45
2019-02-27T00:11:48.188Z,1002.40
2019-02-27T00:12:55.124Z,1002.37
2019-02-27T00:14:01.953Z,1002.39
2019-02-27T00:15:08.776Z,1002.41
2019-02-27T00:16:15.648Z,1002.31
2019-02-27T00:17:22.463Z,1002.35
2019-02-27T00:18:29.909Z,1002.26
2019-02-27T00:19:36.188Z,1002.35
2019-02-27T00:20:43.120Z,1002.27
2019-02-27T00:21:50.092Z,1002.33
2019-02-27T00:22:56.854Z,1002.33
2019-02-27T00:24:03.767Z,1002.35
2019-02-27T00:25:10.565Z,1002.28
2019-02-27T00:26:17.917Z,1002.32
2019-02-27T00:27:24.186Z,1002.30
2019-02-27T00:28:31.021Z,1002.29
2019-02-27T00:29:37.775Z,1002.27
2019-02-27T00:30:44.531Z,1002.34
2019-02-27T00:31:51.302Z,1002.38
2019-02-27T00:32:58.206Z,1002.31
2019-02-27T00:34:05.047Z,1002.27
2019-02-27T00:35:11.787Z,1002.26
2019-02-27T00:36:18.557Z,1002.30
2019-02-27T00:37:25.392Z,1002.34
2019-02-27T00:38:32.083Z,1002.28
2019-02-27T00:39:38.805Z,1002.29
2019-02-27T00:40:45.607Z,1002.18
2019-02-27T00:41:52.473Z,1002.29
2019-02-27T00:42:59.342Z,1002.30
2019-02-27T00:44:06.084Z,1002.33
2019-02-27T00:45:12.814Z,1002.24
2019-02-27T00:46:19.682Z,1002.24
2019-02-27T00:47:26.512Z,1002.33
2019-02-27T00:48:33.397Z,1002.29
2019-02-27T00:49:40.360Z,1002.25
2019-02-27T00:50:47.205Z,1002.23
2019-02-27T00:51:54.092Z,1002.22
2019-02-27T00:53:00.836Z,1002.25
2019-02-27T00:54:07.566Z,1002.19
2019-02-27T00:55:14.376Z,1002.22
2019-02-27T00:56:21.141Z,1002.20
2019-02-27T00:57:28.001Z,1002.18
2019-02-27T00:58:34.894Z,1002.16
2019-02-27T00:59:41.696Z,1002.25
2019-02-27T01:00:48.524Z,1002.16
2019-02-27T01:01:55.328Z,1002.12
2019-02-27T01:03:02.244Z,1002.11
2019-02-27T01:04:09.036Z,1002.18
2019-02-27T01:05:15.899Z,1002.16
2019-02-27T01:06:22.641Z,1002.12
2019-02-27T01:07:29.915Z,1002.07
2019-02-27T01:08:36.703Z,1002.05
2019-02-27T01:09:43.473Z,1002.08
2019-02-27T01:10:50.306Z,1002.07
2019-02-27T01:11:57.172Z,1002.04
2019-02-27T01:13:03.917Z,1002.02
2019-02-27T01:14:10.769Z,1002.10
2019-02-27T01:15:17.612Z,1002.08
2019-02-27T01:16:24.384Z,1002.12
2019-02-27T01:17:31.211Z,1002.09
2019-02-27T01:18:37.977Z,1002.00
2019-02-27T01:19:44.798Z,1002.04
2019-02-27T01:20:51.625Z,1002.06
2019-02-27T01:21:58.475Z,1001.98
2019-02-27T01:23:05.455Z,1002.01
2019-02-27T01:24:12.216Z,1001.92
2019-02-27T01:25:22.884Z,1001.96
2019-02-27T01:26:30.539Z,1002.01
2019-02-27T01:27:32.727Z,1001.96
2019-02-27T01:28:44.643Z,1001.87
2019-02-27T01:29:50.862Z,1001.97
2019-02-27T01:30:57.024Z,1001.87
2019-02-27T01:32:00.224Z,1001.89
2019-02-27T01:33:06.974Z,1001.90
2019-02-27T01:34:13.829Z,1001.86
2019-02-27T01:35:20.717Z,1001.94
2019-02-27T01:36:27.486Z,1001.85
2019-02-27T01:37:34.331Z,1001.84
2019-02-27T01:38:41.095Z,1001.82
2019-02-27T01:39:47.883Z,1001.89
2019-02-27T01:40:56.784Z,1001.83
2019-02-27T01:42:01.592Z,1001.81
2019-02-27T01:43:08.569Z,1001.82
2019-02-27T01:44:15.320Z,1001.77
2019-02-27T01:45:22.095Z,1001.75
2019-02-27T01:46:29.273Z,1001.81
2019-02-27T01:47:36.133Z,1001.74
2019-02-27T01:48:43.610Z,1001.74
2019-02-27T01:49:49.795Z,1001.76
2019-02-27T01:50:57.495Z,1001.74
2019-02-27T01:52:03.083Z,1001.77
2019-02-27T01:53:09.960Z,1001.77
2019-02-27T01:54:16.765Z,1001.71
2019-02-27T01:55:23.561Z,1001.63
2019-02-27T01:56:30.468Z,1001.67
2019-02-27T01:57:37.444Z,1001.62
2019-02-27T01:58:44.446Z,1001.64
2019-02-27T01:59:51.049Z,1001.59
2019-02-27T02:00:59.024Z,1001.56
2019-02-27T02:02:04.898Z,1001.59
2019-02-27T02:03:13.764Z,1001.49
2019-02-27T02:04:20.267Z,1001.52
2019-02-27T02:05:27.104Z,1001.53
2019-02-27T02:06:33.013Z,1001.47
2019-02-27T02:07:40.276Z,1001.41
2019-02-27T02:08:48.272Z,1001.47
2019-02-27T02:09:55.040Z,1001.49
2019-02-27T02:11:01.417Z,1001.42
2019-02-27T02:12:08.675Z,1001.41
2019-02-27T02:13:15.143Z,1001.41
2019-02-27T02:14:21.140Z,1001.44
2019-02-27T02:15:27.915Z,1001.42
2019-02-27T02:16:34.950Z,1001.40
2019-02-27T02:17:41.682Z,1001.37
2019-02-27T02:18:48.845Z,1001.36
2019-02-27T02:19:55.703Z,1001.41
2019-02-27T02:22:08.855Z,1001.40
2019-02-27T02:23:15.078Z,1001.38
2019-02-27T02:24:22.038Z,1001.27
2019-02-27T02:25:28.820Z,1001.31
2019-02-27T02:26:35.902Z,1001.27
2019-02-27T02:27:42.677Z,1001.27
2019-02-27T02:28:49.343Z,1001.21
2019-02-27T02:31:07.660Z,1001.27
2019-02-27T02:32:16.758Z,1001.25
2019-02-27T02:33:30.304Z,1001.23
2019-02-27T02:34:39.867Z,1001.27
2019-02-27T02:35:41.510Z,1001.23
2019-02-27T02:36:48.578Z,1001.23
2019-02-27T02:37:55.408Z,1001.21
2019-02-27T02:39:02.379Z,1001.21
2019-02-27T02:41:18.624Z,1001.22
2019-02-27T02:43:31.717Z,1001.19
2019-02-27T02:44:38.568Z,1001.14
2019-02-27T02:45:45.627Z,1001.14
2019-02-27T02:46:52.730Z,1001.20
2019-02-27T02:49:15.788Z,1001.10
2019-02-27T02:50:22.362Z,1001.10
2019-02-27T02:51:33.585Z,1001.11
2019-02-27T02:52:41.572Z,1001.04
2019-02-27T02:53:48.788Z,1001.06
2019-02-27T02:54:53.863Z,1001.07
2019-02-27T02:57:06.388Z,1001.09
2019-02-27T02:58:13.269Z,1001.08
2019-02-27T02:59:24.379Z,1001.11
2019-02-27T03:00:27.056Z,1001.09
2019-02-27T03:01:34.361Z,1001.03
2019-02-27T03:02:41.289Z,1001.10
2019-02-27T03:04:53.923Z,1000.97
2019-02-27T03:06:01.331Z,1000.97
2019-02-27T03:07:10.844Z,1000.91
2019-02-27T03:08:19.848Z,1000.97
2019-02-27T03:09:21.730Z,1000.91
2019-02-27T03:10:28.174Z,1000.96
2019-02-27T03:11:35.121Z,1000.93
2019-02-27T03:12:42.015Z,1000.92
2019-02-27T03:14:54.478Z,1000.89
2019-02-27T03:16:04.779Z,1000.86
2019-02-27T03:17:07.335Z,1000.93
2019-02-27T03:18:14.240Z,1000.94
2019-02-27T03:19:21.305Z,1000.93
2019-02-27T03:20:28.458Z,1000.93
2019-02-27T03:21:35.419Z,1000.90
2019-02-27T03:22:42.501Z,1000.94
2019-02-27T03:23:52.250Z,1000.91
2019-02-27T03:26:04.045Z,1000.85
2019-02-27T03:27:10.163Z,1000.94
2019-02-27T03:28:17.248Z,1000.90
2019-02-27T03:29:24.313Z,1000.88
2019-02-27T03:30:36.321Z,1000.90
2019-02-27T03:31:38.165Z,1000.82
2019-02-27T03:32:45.229Z,1000.90
2019-02-27T03:33:52.209Z,1000.85
2019-02-27T03:34:58.957Z,1000.81
2019-02-27T03:36:06.842Z,1000.88
2019-02-27T03:37:13.419Z,1000.86
2019-02-27T03:38:23.789Z,1000.77
2019-02-27T03:39:26.555Z,1000.89
2019-02-27T03:40:33.483Z,1000.87
2019-02-27T03:41:40.507Z,1000.86
2019-02-27T03:42:47.193Z,1000.91
2019-02-27T03:43:54.326Z,1000.78
2019-02-27T03:45:01.270Z,1000.85
2019-02-27T03:46:09.161Z,1000.90
2019-02-27T03:47:16.711Z,1000.73
2019-02-27T03:48:27.458Z,1000.82
2019-02-27T03:49:29.079Z,1000.77
2019-02-27T03:50:36.237Z,1000.80
2019-02-27T03:51:42.886Z,1000.83
2019-02-27T03:52:49.646Z,1000.75
2019-02-27T03:53:56.894Z,1000.81
2019-02-27T03:55:03.917Z,1000.79
2019-02-27T03:56:10.764Z,1000.80
2019-02-27T03:57:20.259Z,1000.74
2019-02-27T03:58:26.792Z,1000.72
2019-02-27T03:59:32.127Z,1000.72
2019-02-27T04:00:39.150Z,1000.76
2019-02-27T04:01:45.926Z,1000.77
2019-02-27T04:02:53.225Z,1000.79
2019-02-27T04:03:59.787Z,1000.72
2019-02-27T04:05:07.454Z,1000.70
2019-02-27T04:07:21.709Z,1000.68
2019-02-27T04:08:28.469Z,1000.67
2019-02-27T04:09:35.726Z,1000.60
2019-02-27T04:10:42.662Z,1000.68
2019-02-27T04:11:49.590Z,1000.64
2019-02-27T04:12:56.573Z,1000.64
2019-02-27T04:14:05.460Z,1000.67
2019-02-27T04:15:10.213Z,1000.69
2019-02-27T04:16:16.856Z,1000.65
2019-02-27T04:17:23.932Z,1000.65
2019-02-27T04:18:30.697Z,1000.74
2019-02-27T04:19:39.279Z,1000.74
2019-02-27T04:20:49.673Z,1000.73
2019-02-27T04:21:51.781Z,1000.75
2019-02-27T04:22:58.878Z,1000.74
2019-02-27T04:24:06.349Z,1000.81
2019-02-27T04:25:12.721Z,1000.70
2019-02-27T04:26:19.680Z,1000.72
2019-02-27T04:27:26.494Z,1000.83
2019-02-27T04:28:33.312Z,1000.78
2019-02-27T04:29:41.238Z,1000.75
2019-02-27T04:30:51.028Z,1000.72
2019-02-27T04:31:58.400Z,1000.72
2019-02-27T04:33:00.596Z,1000.73
2019-02-27T04:34:07.867Z,1000.71
2019-02-27T04:35:14.323Z,1000.82
2019-02-27T04:36:21.281Z,1000.71
2019-02-27T04:37:28.340Z,1000.76
2019-02-27T04:38:35.239Z,1000.75
2019-02-27T04:39:41.928Z,1000.62
2019-02-27T04:40:49.188Z,1000.73
2019-02-27T04:41:55.948Z,1000.70
2019-02-27T04:43:02.981Z,1000.72
2019-02-27T04:44:09.872Z,1000.57
2019-02-27T04:45:16.688Z,1000.62
2019-02-27T04:46:23.565Z,1000.67
2019-02-27T04:47:30.386Z,1000.64
2019-02-27T04:48:37.436Z,1000.62
2019-02-27T04:49:44.286Z,1000.62
2019-02-27T04:50:51.288Z,1000.59
2019-02-27T04:51:58.124Z,1000.68
2019-02-27T04:53:05.034Z,1000.69
2019-02-27T04:54:11.869Z,1000.62
2019-02-27T04:55:18.649Z,1000.63
2019-02-27T04:56:25.722Z,1000.63
2019-02-27T04:57:33.725Z,1000.65
2019-02-27T04:58:42.740Z,1000.64
2019-02-27T04:59:46.415Z,1000.64
2019-02-27T05:00:58.904Z,1000.60
2019-02-27T05:02:00.245Z,1000.51
2019-02-27T05:03:07.267Z,1000.53
2019-02-27T05:04:14.097Z,1000.56
2019-02-27T05:05:21.056Z,1000.59
2019-02-27T05:06:28.053Z,1000.52
2019-02-27T05:07:35.085Z,1000.50
2019-02-27T05:08:41.964Z,1000.57
2019-02-27T05:09:48.836Z,1000.53
2019-02-27T05:10:56.980Z,1000.52
2019-02-27T05:12:02.659Z,1000.53
2019-02-27T05:13:09.472Z,1000.53
2019-02-27T05:14:16.233Z,1000.46
2019-02-27T05:15:23.183Z,1000.45
2019-02-27T05:16:30.039Z,1000.43
2019-02-27T05:17:36.841Z,1000.43
2019-02-27T05:18:43.890Z,1000.43
2019-02-27T05:19:52.058Z,1000.45
2019-02-27T05:20:58.832Z,1000.47
2019-02-27T05:22:04.904Z,1000.36
2019-02-27T05:23:11.758Z,1000.40
2019-02-27T05:24:18.512Z,1000.37
2019-02-27T05:25:25.582Z,1000.36
2019-02-27T05:26:32.380Z,1000.35
2019-02-27T05:27:39.228Z,1000.40
2019-02-27T05:28:46.084Z,1000.35
2019-02-27T05:29:52.956Z,1000.34
2019-02-27T05:31:01.045Z,1000.34
2019-02-27T05:32:06.918Z,1000.34
2019-02-27T05:33:13.762Z,1000.37
2019-02-27T05:34:20.629Z,1000.39
2019-02-27T05:35:27.624Z,1000.35
2019-02-27T05:36:34.801Z,1000.41
2019-02-27T05:37:41.588Z,1000.39
2019-02-27T05:38:48.405Z,1000.38
2019-02-27T05:39:55.099Z,1000.39
2019-02-27T05:41:03.582Z,1000.38
2019-02-27T05:42:08.964Z,1000.40
2019-02-27T05:43:15.775Z,1000.43
2019-02-27T05:44:22.547Z,1000.46
2019-02-27T05:45:31.166Z,1000.51
2019-02-27T05:46:38.427Z,1000.43
2019-02-27T05:47:45.810Z,1000.45
2019-02-27T05:48:50.944Z,1000.40
2019-02-27T05:49:57.983Z,1000.36
2019-02-27T05:51:07.681Z,1000.41
2019-02-27T05:52:11.851Z,1000.41
2019-02-27T05:53:22.096Z,1000.35
2019-02-27T05:54:24.644Z,1000.36
2019-02-27T05:55:31.397Z,1000.38
2019-02-27T05:56:38.200Z,1000.39
2019-02-27T05:57:44.872Z,1000.37
2019-02-27T05:58:56.109Z,1000.37
2019-02-27T06:00:02.175Z,1000.35
2019-02-27T06:01:06.326Z,1000.39
2019-02-27T06:02:12.338Z,1000.38
2019-02-27T06:03:19.490Z,1000.43
2019-02-27T06:04:25.836Z,1000.42
2019-02-27T06:05:33.672Z,1000.42
2019-02-27T06:06:39.663Z,1000.40
2019-02-27T06:07:46.473Z,1000.36
2019-02-27T06:08:53.325Z,1000.41
2019-02-27T06:10:00.296Z,1000.39
2019-02-27T06:11:07.904Z,1000.38
2019-02-27T06:12:14.233Z,1000.39
2019-02-27T06:13:21.201Z,1000.48
2019-02-27T06:14:27.964Z,1000.41
2019-02-27T06:15:34.924Z,1000.37
2019-02-27T06:16:41.789Z,1000.43
2019-02-27T06:17:49.690Z,1000.38
2019-02-27T06:18:56.238Z,1000.30
2019-02-27T06:20:02.306Z,1000.35
2019-02-27T06:21:10.008Z,1000.31
2019-02-27T06:22:16.269Z,1000.28
2019-02-27T06:23:23.121Z,1000.35
2019-02-27T06:24:29.954Z,1000.34
2019-02-27T06:25:36.836Z,1000.42
2019-02-27T06:26:43.523Z,1000.36
2019-02-27T06:27:50.525Z,1000.37
2019-02-27T06:28:57.298Z,1000.35
2019-02-27T06:30:04.252Z,1000.41
2019-02-27T06:31:11.213Z,1000.42
2019-02-27T06:32:17.958Z,1000.43
2019-02-27T06:33:24.801Z,1000.37
2019-02-27T06:34:31.569Z,1000.38
2019-02-27T06:35:38.436Z,1000.38
2019-02-27T06:36:45.200Z,1000.45
2019-02-27T06:37:52.089Z,1000.44
2019-02-27T06:39:00.311Z,1000.47
2019-02-27T06:40:07.477Z,1000.47
2019-02-27T06:41:15.413Z,1000.49
2019-02-27T06:42:19.609Z,1000.44
2019-02-27T06:43:27.391Z,1000.48
2019-02-27T06:44:33.372Z,1000.46
2019-02-27T06:45:40.153Z,1000.41
2019-02-27T06:46:46.885Z,1000.41
2019-02-27T06:47:53.800Z,1000.39
2019-02-27T06:49:00.643Z,1000.42
2019-02-27T06:50:07.513Z,1000.41
2019-02-27T06:51:14.378Z,1000.48
2019-02-27T06:52:21.262Z,1000.43
2019-02-27T06:53:28.127Z,1000.46
2019-02-27T06:54:35.193Z,1000.44
2019-02-27T06:55:42.056Z,1000.39
2019-02-27T06:56:49.009Z,1000.40
2019-02-27T06:57:55.889Z,1000.41
2019-02-27T06:59:02.672Z,1000.37
2019-02-27T07:00:09.533Z,1000.32
2019-02-27T07:01:16.088Z,1000.42
2019-02-27T07:02:23.369Z,1000.34
2019-02-27T07:03:32.826Z,1000.34
2019-02-27T07:04:39.635Z,1000.36
2019-02-27T07:05:45.583Z,1000.36
2019-02-27T07:06:54.936Z,1000.35
2019-02-27T07:07:57.792Z,1000.30
2019-02-27T07:09:04.992Z,1000.39
2019-02-27T07:10:11.292Z,1000.40
2019-02-27T07:11:19.031Z,1000.41
2019-02-27T07:12:25.381Z,1000.38
2019-02-27T07:13:32.166Z,1000.34
2019-02-27T07:14:39.835Z,1000.34
2019-02-27T07:15:48.162Z,1000.36
2019-02-27T07:16:56.979Z,1000.29
2019-02-27T07:17:59.608Z,1000.33
2019-02-27T07:19:06.604Z,1000.27
2019-02-27T07:20:13.385Z,1000.30
2019-02-27T07:21:20.318Z,1000.28
2019-02-27T07:22:27.072Z,1000.27
2019-02-27T07:23:35.265Z,1000.33
2019-02-27T07:24:40.809Z,1000.33
2019-02-27T07:25:47.587Z,1000.35
2019-02-27T07:26:54.379Z,1000.28
2019-02-27T07:28:02.903Z,1000.27
2019-02-27T07:29:08.201Z,1000.31
2019-02-27T07:30:14.987Z,1000.25
2019-02-27T07:31:23.337Z,1000.28
2019-02-27T07:32:31.409Z,1000.26
2019-02-27T07:33:38.020Z,1000.24
2019-02-27T07:34:42.537Z,1000.27
2019-02-27T07:35:49.408Z,1000.28
2019-02-27T07:36:56.176Z,1000.30
2019-02-27T07:38:02.916Z,1000.21
2019-02-27T07:39:09.749Z,1000.25
2019-02-27T07:40:16.561Z,1000.25
2019-02-27T07:41:23.518Z,1000.24
2019-02-27T07:42:32.107Z,1000.25
2019-02-27T07:43:37.179Z,1000.27
2019-02-27T07:44:43.976Z,1000.34
2019-02-27T07:45:50.984Z,1000.30
2019-02-27T07:46:58.091Z,1000.28
2019-02-27T07:48:04.845Z,1000.27
2019-02-27T07:49:11.690Z,1000.26
2019-02-27T07:50:18.645Z,1000.33
2019-02-27T07:51:25.634Z,1000.33
2019-02-27T07:52:32.460Z,1000.30
2019-02-27T07:53:39.164Z,1000.31
2019-02-27T07:54:45.948Z,1000.25
2019-02-27T07:55:52.850Z,1000.30
2019-02-27T07:56:59.662Z,1000.23
2019-02-27T07:58:06.525Z,1000.24
2019-02-27T07:59:13.309Z,1000.23
2019-02-27T08:00:20.264Z,1000.15
2019-02-27T08:01:27.244Z,1000.15
2019-02-27T08:02:36.209Z,1000.16
2019-02-27T08:03:44.784Z,1000.17
2019-02-27T08:04:47.893Z,1000.08
2019-02-27T08:05:54.557Z,1000.11
2019-02-27T08:07:01.279Z,1000.01
2019-02-27T08:08:08.263Z,1000.09
2019-02-27T08:09:15.155Z,1000.05
2019-02-27T08:10:22.205Z,1000.09
2019-02-27T08:11:29.029Z,1000.08
2019-02-27T08:12:35.945Z,1000.04
2019-02-27T08:13:42.805Z,1000.00
2019-02-27T08:14:49.825Z,1000.02
2019-02-27T08:15:57.985Z,1000.04
2019-02-27T08:17:10.213Z,1000.06
2019-02-27T08:18:10.627Z,1000.09
2019-02-27T08:19:17.337Z,1000.06
2019-02-27T08:20:24.244Z,1000.07
2019-02-27T08:21:30.980Z,1000.08
2019-02-27T08:22:37.828Z,1000.08
2019-02-27T08:23:44.658Z,1000.07
2019-02-27T08:24:51.525Z,1000.08
2019-02-27T08:25:58.427Z,1000.10
2019-02-27T08:27:07.114Z,1000.08
2019-02-27T08:28:12.236Z,1000.09
2019-02-27T08:29:19.230Z,1000.15
2019-02-27T08:30:26.046Z,1000.07
2019-02-27T08:31:32.964Z,1000.12
2019-02-27T08:32:39.850Z,1000.11
2019-02-27T08:33:47.006Z,1000.14
2019-02-27T08:34:53.801Z,1000.16
2019-02-27T08:36:00.504Z,1000.18
2019-02-27T08:37:07.374Z,1000.17
2019-02-27T08:38:14.178Z,1000.20
2019-02-27T08:39:21.141Z,1000.15
2019-02-27T08:40:27.948Z,1000.23
2019-02-27T08:41:34.991Z,1000.09
2019-02-27T08:42:41.841Z,1000.11
2019-02-27T08:43:48.908Z,1000.13
2019-02-27T08:44:55.780Z,1000.11
2019-02-27T08:46:03.177Z,1000.10
2019-02-27T08:47:10.312Z,1000.08
2019-02-27T08:48:17.557Z,1000.14
2019-02-27T08:49:24.950Z,1000.06
2019-02-27T08:50:31.660Z,1000.11
2019-02-27T08:51:39.785Z,1000.12
2019-02-27T08:52:44.594Z,1000.07
2019-02-27T08:53:51.230Z,1000.04
2019-02-27T08:54:58.013Z,1000.02
2019-02-27T08:56:04.986Z,1000.02
2019-02-27T08:57:11.844Z,999.97
2019-02-27T08:58:18.604Z,999.99
2019-02-27T08:59:25.379Z,999.96
2019-02-27T09:00:32.149Z,1000.02
2019-02-27T09:01:39.449Z,999.96
2019-02-27T09:02:46.409Z,1000.03
2019-02-27T09:03:53.244Z,999.98
2019-02-27T09:05:00.014Z,999.96
2019-02-27T09:06:06.999Z,999.97
2019-02-27T09:07:13.763Z,999.96
2019-02-27T09:08:20.546Z,999.99
2019-02-27T09:09:28.036Z,999.95
2019-02-27T09:10:34.557Z,999.98
2019-02-27T09:11:41.556Z,999.95
2019-02-27T09:12:49.499Z,999.99
2019-02-27T09:13:55.289Z,999.97
2019-02-27T09:15:01.935Z,999.93
2019-02-27T09:16:08.848Z,999.95
2019-02-27T09:17:15.651Z,999.97
2019-02-27T09:18:23.048Z,999.85
2019-02-27T09:19:29.287Z,999.89
2019-02-27T09:20:36.291Z,999.87
2019-02-27T09:21:43.159Z,999.87
2019-02-27T09:22:50.137Z,999.83
2019-02-27T09:23:57.092Z,999.82
2019-02-27T09:25:04.364Z,999.81
2019-02-27T09:26:11.034Z,999.79
2019-02-27T09:27:17.797Z,999.77
2019-02-27T09:28:24.641Z,999.80
2019-02-27T09:29:31.401Z,999.81
2019-02-27T09:30:38.273Z,999.69
2019-02-27T09:31:50.797Z,999.65
2019-02-27T09:32:51.984Z,999.66
2019-02-27T09:33:58.828Z,999.62
2019-02-27T09:35:05.741Z,999.59
2019-02-27T09:36:12.820Z,999.54
2019-02-27T09:37:20.009Z,999.54
2019-02-27T09:38:26.861Z,999.49
2019-02-27T09:39:35.149Z,999.52
2019-02-27T09:40:40.338Z,999.48
2019-02-27T09:41:47.122Z,999.45
2019-02-27T09:42:54.101Z,999.44
2019-02-27T09:44:01.356Z,999.37
2019-02-27T09:45:08.298Z,999.35
2019-02-27T09:46:19.246Z,999.43
2019-02-27T09:47:23.151Z,999.37
2019-02-27T09:48:31.132Z,999.38
2019-02-27T09:49:38.040Z,999.39
2019-02-27T09:50:47.639Z,999.38
2019-02-27T09:51:49.681Z,999.37
2019-02-27T09:52:56.480Z,999.34
2019-02-27T09:54:03.310Z,999.29
2019-02-27T09:55:10.176Z,999.35
2019-02-27T09:56:16.796Z,999.33
2019-02-27T09:57:24.137Z,999.25
2019-02-27T09:58:30.864Z,999.18
2019-02-27T09:59:37.780Z,999.18
2019-02-27T10:00:44.508Z,999.20
2019-02-27T10:01:51.343Z,999.19
2019-02-27T10:02:58.306Z,999.24
2019-02-27T10:04:05.141Z,999.24
2019-02-27T10:05:12.493Z,999.16
2019-02-27T10:06:18.968Z,999.23
2019-02-27T10:07:25.810Z,999.23
2019-02-27T10:08:32.805Z,999.12
2019-02-27T10:09:43.156Z,999.05
2019-02-27T10:10:46.620Z,999.13
2019-02-27T10:11:54.203Z,999.09
2019-02-27T10:13:03.390Z,999.12
2019-02-27T10:14:07.651Z,999.06
2019-02-27T10:15:14.590Z,999.08
2019-02-27T10:16:21.681Z,999.05
2019-02-27T10:17:28.638Z,999.06
2019-02-27T10:18:35.542Z,999.04
2019-02-27T10:19:42.334Z,999.00
2019-02-27T10:20:49.268Z,999.04
2019-02-27T10:21:56.135Z,998.97
2019-02-27T10:23:03.121Z,998.94
2019-02-27T10:24:10.089Z,998.98
2019-02-27T10:25:16.777Z,998.93
2019-02-27T10:26:23.713Z,998.92
2019-02-27T10:27:30.473Z,998.87
2019-02-27T10:28:39.624Z,998.91
2019-02-27T10:29:47.769Z,998.86
2019-02-27T10:30:51.204Z,998.86
2019-02-27T10:31:58.238Z,998.80
2019-02-27T10:33:04.976Z,998.88
2019-02-27T10:34:11.792Z,998.81
2019-02-27T10:35:18.752Z,998.83
2019-02-27T10:36:25.610Z,998.83
2019-02-27T10:37:32.292Z,998.82
2019-02-27T10:38:40.393Z,998.81
2019-02-27T10:39:45.963Z,998.71
2019-02-27T10:40:52.816Z,998.78
2019-02-27T10:41:59.736Z,998.82
2019-02-27T10:43:06.817Z,998.77
2019-02-27T10:44:13.904Z,998.76
2019-02-27T10:45:20.850Z,998.78
2019-02-27T10:46:27.774Z,998.70
2019-02-27T10:47:36.526Z,998.78
2019-02-27T10:48:41.492Z,998.68
2019-02-27T10:49:48.837Z,998.77
2019-02-27T10:50:55.249Z,998.77
2019-02-27T10:52:02.107Z,998.71
2019-02-27T10:53:08.976Z,998.78
2019-02-27T10:54:15.709Z,998.64
2019-02-27T10:55:22.585Z,998.72
2019-02-27T10:56:29.413Z,998.65
2019-02-27T10:57:38.398Z,998.63
2019-02-27T10:58:45.014Z,998.69
2019-02-27T10:59:50.433Z,998.62
2019-02-27T11:00:58.062Z,998.69
2019-02-27T11:02:04.412Z,998.69
2019-02-27T11:03:11.232Z,998.69
2019-02-27T11:04:18.077Z,998.57
2019-02-27T11:05:24.973Z,998.52
2019-02-27T11:06:34.192Z,998.50
2019-02-27T11:07:38.493Z,998.55
2019-02-27T11:08:45.411Z,998.57
2019-02-27T11:09:52.672Z,998.42
2019-02-27T11:10:59.220Z,998.48
2019-02-27T11:12:06.502Z,998.51
2019-02-27T11:13:13.474Z,998.42
2019-02-27T11:14:19.984Z,998.37
2019-02-27T11:15:27.102Z,998.40
2019-02-27T11:16:33.961Z,998.32
2019-02-27T11:17:40.884Z,998.34
2019-02-27T11:18:47.545Z,998.35
2019-02-27T11:19:54.448Z,998.38
2019-02-27T11:21:01.637Z,998.33
2019-02-27T11:22:07.959Z,998.31
2019-02-27T11:23:14.865Z,998.22
2019-02-27T11:24:21.784Z,998.29
2019-02-27T11:25:28.706Z,998.26
2019-02-27T11:26:35.659Z,998.23
2019-02-27T11:27:42.440Z,998.19
2019-02-27T11:28:49.399Z,998.16
2019-02-27T11:29:59.285Z,998.17
2019-02-27T11:31:03.042Z,998.16
2019-02-27T11:32:09.986Z,998.12
2019-02-27T11:33:25.698Z,998.09
2019-02-27T11:34:23.630Z,998.04
2019-02-27T11:35:30.418Z,998.01
2019-02-27T11:36:39.082Z,998.02
2019-02-27T11:37:46.878Z,998.00
2019-02-27T11:38:51.348Z,998.01
2019-02-27T11:39:58.075Z,997.95
2019-02-27T11:41:05.104Z,997.89
2019-02-27T11:42:12.035Z,997.92
2019-02-27T11:43:18.985Z,997.85
2019-02-27T11:44:25.858Z,997.87
2019-02-27T11:45:32.683Z,997.89
2019-02-27T11:46:39.596Z,997.83
2019-02-27T11:47:48.120Z,997.81
2019-02-27T11:48:53.568Z,997.79
2019-02-27T11:50:01.043Z,997.75
2019-02-27T11:51:07.909Z,997.82
2019-02-27T11:52:14.969Z,997.74
2019-02-27T11:53:22.137Z,997.71
2019-02-27T11:54:29.010Z,997.67
2019-02-27T11:55:35.984Z,997.68
2019-02-27T11:56:42.941Z,997.65
2019-02-27T11:57:49.911Z,997.60
2019-02-27T11:58:56.772Z,997.63
2019-02-27T12:00:03.657Z,997.61
2019-02-27T12:01:12.135Z,997.58
2019-02-27T12:02:17.280Z,997.51
2019-02-27T12:03:24.254Z,997.55
2019-02-27T12:04:30.982Z,997.52
2019-02-27T12:05:38.006Z,997.52
2019-02-27T12:06:44.950Z,997.53
2019-02-27T12:07:52.638Z,997.49
2019-02-27T12:08:59.812Z,997.53
2019-02-27T12:10:06.670Z,997.55
2019-02-27T12:11:14.216Z,997.54
2019-02-27T12:12:22.606Z,997.45
2019-02-27T12:13:26.368Z,997.42
2019-02-27T12:14:33.131Z,997.37
2019-02-27T12:15:43.328Z,997.38
2019-02-27T12:16:51.375Z,997.35
2019-02-27T12:17:53.943Z,997.25
2019-02-27T12:19:01.213Z,997.26
2019-02-27T12:20:07.676Z,997.36
2019-02-27T12:21:14.843Z,997.27
2019-02-27T12:22:22.649Z,997.18
2019-02-27T12:23:28.593Z,997.25
2019-02-27T12:24:35.649Z,997.15
2019-02-27T12:25:42.757Z,997.21
2019-02-27T12:26:49.789Z,997.17
2019-02-27T12:27:56.664Z,997.14
2019-02-27T12:29:03.589Z,997.17
2019-02-27T12:30:10.613Z,997.18
2019-02-27T12:31:17.685Z,997.11
2019-02-27T12:32:24.557Z,997.14
2019-02-27T12:33:31.204Z,997.15
2019-02-27T12:34:38.568Z,997.08
2019-02-27T12:35:45.588Z,997.12
2019-02-27T12:36:53.209Z,997.06
2019-02-27T12:37:59.407Z,997.09
2019-02-27T12:39:06.511Z,997.07
2019-02-27T12:40:13.380Z,997.04
2019-02-27T12:41:20.843Z,996.99
2019-02-27T12:42:36.787Z,997.02
2019-02-27T12:43:34.221Z,997.04
2019-02-27T12:44:42.160Z,997.03
2019-02-27T12:45:48.061Z,996.97
2019-02-27T12:46:55.072Z,996.91
2019-02-27T12:48:02.633Z,996.84
2019-02-27T12:49:09.226Z,996.94
2019-02-27T12:50:16.050Z,996.90
2019-02-27T12:51:22.721Z,996.87
2019-02-27T12:52:29.468Z,996.85
2019-02-27T12:53:36.553Z,996.85
2019-02-27T12:54:43.425Z,996.86
2019-02-27T12:55:50.221Z,996.84
2019-02-27T12:56:57.074Z,996.77
2019-02-27T12:58:04.148Z,996.82
2019-02-27T12:59:10.990Z,996.69
2019-02-27T13:00:17.956Z,996.69
2019-02-27T13:01:25.167Z,996.66
2019-02-27T13:02:35.597Z,996.60
2019-02-27T13:03:42.245Z,996.66
2019-02-27T13:04:45.754Z,996.56
2019-02-27T13:05:52.590Z,996.56
2019-02-27T13:06:59.396Z,996.64
2019-02-27T13:08:06.339Z,996.59
2019-02-27T13:09:13.156Z,996.56
2019-02-27T13:10:20.389Z,996.57
2019-02-27T13:11:26.961Z,996.63
2019-02-27T13:12:33.889Z,996.55
2019-02-27T13:13:40.697Z,996.57
2019-02-27T13:14:47.637Z,996.53
2019-02-27T13:15:54.529Z,996.49
2019-02-27T13:17:01.284Z,996.49
2019-02-27T13:18:08.375Z,996.55
2019-02-27T13:19:16.476Z,996.52
2019-02-27T13:20:22.595Z,996.49
2019-02-27T13:21:29.411Z,996.47
2019-02-27T13:22:36.542Z,996.44
2019-02-27T13:23:43.512Z,996.43
2019-02-27T13:24:50.954Z,996.44
2019-02-27T13:26:00.422Z,996.40
2019-02-27T13:27:09.068Z,996.37
2019-02-27T13:28:14.570Z,996.38
2019-02-27T13:29:20.602Z,996.28
2019-02-27T13:30:25.677Z,996.34
2019-02-27T13:31:32.629Z,996.30
2019-02-27T13:32:39.613Z,996.27
2019-02-27T13:33:46.503Z,996.22
2019-02-27T13:34:53.453Z,996.16
2019-02-27T13:36:00.450Z,996.17
2019-02-27T13:37:10.047Z,996.16
2019-02-27T13:38:17.702Z,996.12
2019-02-27T13:39:25.364Z,996.12
2019-02-27T13:40:28.085Z,996.07
2019-02-27T13:41:35.251Z,996.08
2019-02-27T13:42:42.536Z,996.13
2019-02-27T13:43:48.962Z,996.12
2019-02-27T13:44:55.842Z,996.02
2019-02-27T13:46:02.653Z,996.08
2019-02-27T13:47:09.620Z,996.00
2019-02-27T13:48:16.328Z,995.95
2019-02-27T13:49:25.918Z,995.92